sensor_id;sensor_type;location;lat;lon;timestamp;P1;durP1;ratioP1;P2;durP2;ratioP2
10403;SDS011;5248;47.374;8.486;2023-04-15T00:01:52;1.57;;;0.80;;
10403;SDS011;5248;47.374;8.486;2023-04-15T00:04:18;3.23;;;1.57;;
10403;SDS011;5248;47.374;8.486;2023-04-15T00:06:48;1.07;;;0.97;;
10403;SDS011;5248;47.374;8.486;2023-04-15T00:09:17;3.03;;;1.23;;
10403;SDS011;5248;47.374;8.486;2023-04-15T00:11:43;0.97;;;0.70;;
10403;SDS011;5248;47.374;8.486;2023-04-15T00:14:10;1.47;;;0.93;;
10403;SDS011;5248;47.374;8.486;2023-04-15T00:16:37;2.37;;;1.20;;
10403;SDS011;5248;47.374;8.486;2023-04-15T00:19:05;2.10;;;1.23;;
10403;SDS011;5248;47.374;8.486;2023-04-15T00:21:31;3.03;;;1.30;;
10403;SDS011;5248;47.374;8.486;2023-04-15T00:23:58;2.33;;;1.00;;
10403;SDS011;5248;47.374;8.486;2023-04-15T00:26:25;3.13;;;1.87;;
10403;SDS011;5248;47.374;8.486;2023-04-15T00:28:51;1.70;;;1.57;;
10403;SDS011;5248;47.374;8.486;2023-04-15T00:31:18;3.47;;;1.47;;
10403;SDS011;5248;47.374;8.486;2023-04-15T00:33:44;2.83;;;1.60;;
10403;SDS011;5248;47.374;8.486;2023-04-15T00:36:12;1.30;;;1.20;;
10403;SDS011;5248;47.374;8.486;2023-04-15T00:38:39;3.40;;;2.07;;
10403;SDS011;5248;47.374;8.486;2023-04-15T00:41:06;2.27;;;1.80;;
10403;SDS011;5248;47.374;8.486;2023-04-15T00:43:33;2.97;;;2.37;;
10403;SDS011;5248;47.374;8.486;2023-04-15T00:45:59;3.67;;;2.63;;
10403;SDS011;5248;47.374;8.486;2023-04-15T00:48:27;4.63;;;2.77;;
10403;SDS011;5248;47.374;8.486;2023-04-15T00:50:54;4.37;;;3.37;;
10403;SDS011;5248;47.374;8.486;2023-04-15T00:53:22;2.63;;;2.40;;
10403;SDS011;5248;47.374;8.486;2023-04-15T00:55:49;2.47;;;2.20;;
10403;SDS011;5248;47.374;8.486;2023-04-15T00:58:15;2.67;;;1.83;;
10403;SDS011;5248;47.374;8.486;2023-04-15T01:00:42;2.23;;;0.93;;
10403;SDS011;5248;47.374;8.486;2023-04-15T01:03:08;2.53;;;1.47;;
10403;SDS011;5248;47.374;8.486;2023-04-15T01:05:35;1.73;;;1.30;;
10403;SDS011;5248;47.374;8.486;2023-04-15T01:08:02;1.27;;;1.00;;
10403;SDS011;5248;47.374;8.486;2023-04-15T01:10:30;2.57;;;1.27;;
10403;SDS011;5248;47.374;8.486;2023-04-15T01:12:57;1.87;;;1.50;;
10403;SDS011;5248;47.374;8.486;2023-04-15T01:15:24;2.20;;;1.73;;
10403;SDS011;5248;47.374;8.486;2023-04-15T01:17:50;1.93;;;1.50;;
10403;SDS011;5248;47.374;8.486;2023-04-15T01:20:17;3.93;;;1.83;;
10403;SDS011;5248;47.374;8.486;2023-04-15T01:22:44;2.23;;;1.70;;
10403;SDS011;5248;47.374;8.486;2023-04-15T01:25:11;4.37;;;2.17;;
10403;SDS011;5248;47.374;8.486;2023-04-15T01:27:39;5.23;;;2.20;;
10403;SDS011;5248;47.374;8.486;2023-04-15T01:30:07;2.83;;;2.03;;
10403;SDS011;5248;47.374;8.486;2023-04-15T01:32:34;2.70;;;2.10;;
10403;SDS011;5248;47.374;8.486;2023-04-15T01:35:01;2.77;;;2.43;;
10403;SDS011;5248;47.374;8.486;2023-04-15T01:37:27;2.80;;;2.10;;
10403;SDS011;5248;47.374;8.486;2023-04-15T01:39:54;1.90;;;1.80;;
10403;SDS011;5248;47.374;8.486;2023-04-15T01:42:21;2.93;;;2.37;;
10403;SDS011;5248;47.374;8.486;2023-04-15T01:44:49;3.17;;;2.33;;
10403;SDS011;5248;47.374;8.486;2023-04-15T01:47:16;1.90;;;1.80;;
10403;SDS011;5248;47.374;8.486;2023-04-15T01:49:42;2.73;;;2.13;;
10403;SDS011;5248;47.374;8.486;2023-04-15T01:52:09;2.63;;;2.43;;
10403;SDS011;5248;47.374;8.486;2023-04-15T01:54:35;2.50;;;2.30;;
10403;SDS011;5248;47.374;8.486;2023-04-15T01:57:02;2.83;;;1.97;;
10403;SDS011;5248;47.374;8.486;2023-04-15T01:59:29;3.43;;;1.90;;
10403;SDS011;5248;47.374;8.486;2023-04-15T02:01:57;2.87;;;2.23;;
10403;SDS011;5248;47.374;8.486;2023-04-15T02:04:23;3.57;;;2.20;;
10403;SDS011;5248;47.374;8.486;2023-04-15T02:06:50;3.47;;;2.20;;
10403;SDS011;5248;47.374;8.486;2023-04-15T02:09:17;2.57;;;2.30;;
10403;SDS011;5248;47.374;8.486;2023-04-15T02:11:44;2.30;;;1.93;;
10403;SDS011;5248;47.374;8.486;2023-04-15T02:14:11;3.17;;;2.10;;
10403;SDS011;5248;47.374;8.486;2023-04-15T02:16:37;2.50;;;2.30;;
10403;SDS011;5248;47.374;8.486;2023-04-15T02:19:05;4.13;;;3.53;;
10403;SDS011;5248;47.374;8.486;2023-04-15T02:21:32;3.50;;;3.20;;
10403;SDS011;5248;47.374;8.486;2023-04-15T02:23:59;5.20;;;3.40;;
10403;SDS011;5248;47.374;8.486;2023-04-15T02:26:26;4.30;;;3.33;;
10403;SDS011;5248;47.374;8.486;2023-04-15T02:28:56;3.57;;;2.70;;
10403;SDS011;5248;47.374;8.486;2023-04-15T02:31:22;3.70;;;3.30;;
10403;SDS011;5248;47.374;8.486;2023-04-15T02:33:49;4.83;;;4.07;;
10403;SDS011;5248;47.374;8.486;2023-04-15T02:36:17;5.13;;;3.63;;
10403;SDS011;5248;47.374;8.486;2023-04-15T02:38:45;4.00;;;3.60;;
10403;SDS011;5248;47.374;8.486;2023-04-15T02:41:12;4.67;;;4.00;;
10403;SDS011;5248;47.374;8.486;2023-04-15T02:43:39;4.17;;;3.77;;
10403;SDS011;5248;47.374;8.486;2023-04-15T02:46:05;2.60;;;2.40;;
10403;SDS011;5248;47.374;8.486;2023-04-15T02:48:32;2.73;;;2.30;;
10403;SDS011;5248;47.374;8.486;2023-04-15T02:51:12;2.40;;;2.20;;
10403;SDS011;5248;47.374;8.486;2023-04-15T02:53:40;3.53;;;2.23;;
10403;SDS011;5248;47.374;8.486;2023-04-15T02:56:06;3.10;;;2.47;;
10403;SDS011;5248;47.374;8.486;2023-04-15T02:58:33;3.90;;;3.30;;
10403;SDS011;5248;47.374;8.486;2023-04-15T03:01:00;3.60;;;2.90;;
10403;SDS011;5248;47.374;8.486;2023-04-15T03:03:27;2.73;;;2.20;;
10403;SDS011;5248;47.374;8.486;2023-04-15T03:05:53;4.40;;;2.20;;
10403;SDS011;5248;47.374;8.486;2023-04-15T03:08:20;3.13;;;2.10;;
10403;SDS011;5248;47.374;8.486;2023-04-15T03:10:47;3.23;;;2.47;;
10403;SDS011;5248;47.374;8.486;2023-04-15T03:13:16;2.60;;;1.97;;
10403;SDS011;5248;47.374;8.486;2023-04-15T03:15:42;6.83;;;1.97;;
10403;SDS011;5248;47.374;8.486;2023-04-15T03:18:09;2.57;;;2.00;;
10403;SDS011;5248;47.374;8.486;2023-04-15T03:20:35;2.07;;;1.87;;
10403;SDS011;5248;47.374;8.486;2023-04-15T03:23:02;1.80;;;1.60;;
10403;SDS011;5248;47.374;8.486;2023-04-15T03:25:28;3.00;;;1.93;;
10403;SDS011;5248;47.374;8.486;2023-04-15T03:27:56;2.30;;;2.10;;
10403;SDS011;5248;47.374;8.486;2023-04-15T03:30:22;3.20;;;1.80;;
10403;SDS011;5248;47.374;8.486;2023-04-15T03:32:49;2.60;;;2.40;;
10403;SDS011;5248;47.374;8.486;2023-04-15T03:35:15;6.33;;;2.20;;
10403;SDS011;5248;47.374;8.486;2023-04-15T03:37:42;2.60;;;1.87;;
10403;SDS011;5248;47.374;8.486;2023-04-15T03:40:09;2.63;;;1.97;;
10403;SDS011;5248;47.374;8.486;2023-04-15T03:42:36;4.53;;;2.10;;
10403;SDS011;5248;47.374;8.486;2023-04-15T03:45:05;3.20;;;1.80;;
10403;SDS011;5248;47.374;8.486;2023-04-15T03:47:32;5.00;;;2.00;;
10403;SDS011;5248;47.374;8.486;2023-04-15T03:49:59;2.93;;;2.23;;
10403;SDS011;5248;47.374;8.486;2023-04-15T03:52:25;2.10;;;1.87;;
10403;SDS011;5248;47.374;8.486;2023-04-15T03:54:51;2.30;;;2.17;;
10403;SDS011;5248;47.374;8.486;2023-04-15T03:57:18;2.13;;;1.90;;
10403;SDS011;5248;47.374;8.486;2023-04-15T03:59:44;3.47;;;1.97;;
10403;SDS011;5248;47.374;8.486;2023-04-15T04:02:12;2.40;;;2.07;;
10403;SDS011;5248;47.374;8.486;2023-04-15T04:04:38;3.90;;;2.17;;
10403;SDS011;5248;47.374;8.486;2023-04-15T04:07:05;4.13;;;2.13;;
10403;SDS011;5248;47.374;8.486;2023-04-15T04:09:31;2.57;;;1.63;;
10403;SDS011;5248;47.374;8.486;2023-04-15T04:11:58;4.40;;;2.00;;
10403;SDS011;5248;47.374;8.486;2023-04-15T04:14:25;2.00;;;1.50;;
10403;SDS011;5248;47.374;8.486;2023-04-15T04:16:53;1.73;;;1.60;;
10403;SDS011;5248;47.374;8.486;2023-04-15T04:19:21;1.17;;;1.17;;
10403;SDS011;5248;47.374;8.486;2023-04-15T04:21:48;1.67;;;1.40;;
10403;SDS011;5248;47.374;8.486;2023-04-15T04:24:14;4.07;;;2.03;;
10403;SDS011;5248;47.374;8.486;2023-04-15T04:26:41;4.17;;;2.70;;
10403;SDS011;5248;47.374;8.486;2023-04-15T04:29:07;3.57;;;2.03;;
10403;SDS011;5248;47.374;8.486;2023-04-15T04:31:34;3.00;;;2.17;;
10403;SDS011;5248;47.374;8.486;2023-04-15T04:34:01;2.33;;;1.30;;
10403;SDS011;5248;47.374;8.486;2023-04-15T04:36:28;1.83;;;1.40;;
10403;SDS011;5248;47.374;8.486;2023-04-15T04:38:55;1.90;;;1.30;;
10403;SDS011;5248;47.374;8.486;2023-04-15T04:41:22;2.73;;;1.60;;
10403;SDS011;5248;47.374;8.486;2023-04-15T04:43:48;1.43;;;1.33;;
10403;SDS011;5248;47.374;8.486;2023-04-15T04:46:15;3.60;;;1.63;;
10403;SDS011;5248;47.374;8.486;2023-04-15T04:48:41;3.03;;;1.30;;
10403;SDS011;5248;47.374;8.486;2023-04-15T04:51:07;2.30;;;1.63;;
10403;SDS011;5248;47.374;8.486;2023-04-15T04:53:35;1.83;;;1.20;;
10403;SDS011;5248;47.374;8.486;2023-04-15T04:56:02;2.63;;;1.10;;
10403;SDS011;5248;47.374;8.486;2023-04-15T04:58:29;1.33;;;1.07;;
10403;SDS011;5248;47.374;8.486;2023-04-15T05:00:55;2.40;;;1.30;;
10403;SDS011;5248;47.374;8.486;2023-04-15T05:03:23;2.60;;;1.20;;
10403;SDS011;5248;47.374;8.486;2023-04-15T05:05:50;1.80;;;1.70;;
10403;SDS011;5248;47.374;8.486;2023-04-15T05:08:16;1.80;;;1.70;;
10403;SDS011;5248;47.374;8.486;2023-04-15T05:10:44;2.90;;;1.37;;
10403;SDS011;5248;47.374;8.486;2023-04-15T05:13:10;2.97;;;1.23;;
10403;SDS011;5248;47.374;8.486;2023-04-15T05:15:37;1.70;;;1.50;;
10403;SDS011;5248;47.374;8.486;2023-04-15T05:18:05;3.00;;;1.50;;
10403;SDS011;5248;47.374;8.486;2023-04-15T05:20:31;2.07;;;1.33;;
10403;SDS011;5248;47.374;8.486;2023-04-15T05:22:58;1.53;;;1.10;;
10403;SDS011;5248;47.374;8.486;2023-04-15T05:25:24;1.90;;;1.00;;
10403;SDS011;5248;47.374;8.486;2023-04-15T05:27:52;3.67;;;1.30;;
10403;SDS011;5248;47.374;8.486;2023-04-15T05:30:18;1.40;;;1.30;;
10403;SDS011;5248;47.374;8.486;2023-04-15T05:32:46;1.87;;;1.23;;
10403;SDS011;5248;47.374;8.486;2023-04-15T05:35:12;1.67;;;1.57;;
10403;SDS011;5248;47.374;8.486;2023-04-15T05:37:39;2.70;;;1.50;;
10403;SDS011;5248;47.374;8.486;2023-04-15T05:40:05;1.87;;;1.67;;
10403;SDS011;5248;47.374;8.486;2023-04-15T05:42:34;2.03;;;1.73;;
10403;SDS011;5248;47.374;8.486;2023-04-15T05:45:02;1.53;;;1.43;;
10403;SDS011;5248;47.374;8.486;2023-04-15T05:47:33;1.93;;;1.20;;
10403;SDS011;5248;47.374;8.486;2023-04-15T05:49:59;2.70;;;1.93;;
10403;SDS011;5248;47.374;8.486;2023-04-15T05:52:26;2.17;;;1.73;;
10403;SDS011;5248;47.374;8.486;2023-04-15T05:54:52;2.10;;;1.67;;
10403;SDS011;5248;47.374;8.486;2023-04-15T05:57:19;2.00;;;1.80;;
10403;SDS011;5248;47.374;8.486;2023-04-15T05:59:45;4.17;;;1.80;;
10403;SDS011;5248;47.374;8.486;2023-04-15T06:02:13;2.30;;;1.83;;
10403;SDS011;5248;47.374;8.486;2023-04-15T06:04:40;3.23;;;1.73;;
10403;SDS011;5248;47.374;8.486;2023-04-15T06:07:07;2.53;;;1.90;;
10403;SDS011;5248;47.374;8.486;2023-04-15T06:09:33;2.33;;;1.90;;
10403;SDS011;5248;47.374;8.486;2023-04-15T06:12:00;2.10;;;1.63;;
10403;SDS011;5248;47.374;8.486;2023-04-15T06:14:27;3.23;;;1.77;;
10403;SDS011;5248;47.374;8.486;2023-04-15T06:16:53;4.00;;;2.33;;
10403;SDS011;5248;47.374;8.486;2023-04-15T06:19:21;2.23;;;2.03;;
10403;SDS011;5248;47.374;8.486;2023-04-15T06:21:48;2.27;;;1.90;;
10403;SDS011;5248;47.374;8.486;2023-04-15T06:24:15;3.57;;;1.93;;
10403;SDS011;5248;47.374;8.486;2023-04-15T06:26:42;4.37;;;2.13;;
10403;SDS011;5248;47.374;8.486;2023-04-15T06:29:08;3.90;;;2.20;;
10403;SDS011;5248;47.374;8.486;2023-04-15T06:31:35;4.83;;;2.27;;
10403;SDS011;5248;47.374;8.486;2023-04-15T06:34:01;2.60;;;2.23;;
10403;SDS011;5248;47.374;8.486;2023-04-15T06:36:29;4.23;;;2.20;;
10403;SDS011;5248;47.374;8.486;2023-04-15T06:38:56;3.90;;;1.80;;
10403;SDS011;5248;47.374;8.486;2023-04-15T06:41:22;2.13;;;1.93;;
10403;SDS011;5248;47.374;8.486;2023-04-15T06:43:49;3.53;;;2.10;;
10403;SDS011;5248;47.374;8.486;2023-04-15T06:46:16;3.20;;;1.73;;
10403;SDS011;5248;47.374;8.486;2023-04-15T06:48:42;2.83;;;1.90;;
10403;SDS011;5248;47.374;8.486;2023-04-15T06:51:08;4.63;;;1.97;;
10403;SDS011;5248;47.374;8.486;2023-04-15T06:53:37;2.10;;;1.67;;
10403;SDS011;5248;47.374;8.486;2023-04-15T06:56:05;2.67;;;1.97;;
10403;SDS011;5248;47.374;8.486;2023-04-15T06:58:32;2.17;;;1.87;;
10403;SDS011;5248;47.374;8.486;2023-04-15T07:00:59;2.23;;;1.90;;
10403;SDS011;5248;47.374;8.486;2023-04-15T07:03:25;2.27;;;1.87;;
10403;SDS011;5248;47.374;8.486;2023-04-15T07:05:52;4.97;;;2.07;;
10403;SDS011;5248;47.374;8.486;2023-04-15T07:08:18;2.10;;;1.90;;
10403;SDS011;5248;47.374;8.486;2023-04-15T07:10:46;3.43;;;2.00;;
10403;SDS011;5248;47.374;8.486;2023-04-15T07:13:12;3.30;;;1.83;;
10403;SDS011;5248;47.374;8.486;2023-04-15T07:15:39;2.17;;;1.90;;
10403;SDS011;5248;47.374;8.486;2023-04-15T07:18:05;2.77;;;1.90;;
10403;SDS011;5248;47.374;8.486;2023-04-15T07:20:32;2.13;;;1.83;;
10403;SDS011;5248;47.374;8.486;2023-04-15T07:22:58;4.03;;;2.27;;
10403;SDS011;5248;47.374;8.486;2023-04-15T07:25:24;3.07;;;2.17;;
10403;SDS011;5248;47.374;8.486;2023-04-15T07:27:54;3.47;;;1.90;;
10403;SDS011;5248;47.374;8.486;2023-04-15T07:30:21;3.50;;;2.00;;
10403;SDS011;5248;47.374;8.486;2023-04-15T07:32:47;4.20;;;1.93;;
10403;SDS011;5248;47.374;8.486;2023-04-15T07:35:14;3.43;;;2.00;;
10403;SDS011;5248;47.374;8.486;2023-04-15T07:37:40;4.17;;;1.73;;
10403;SDS011;5248;47.374;8.486;2023-04-15T07:40:08;4.83;;;2.20;;
10403;SDS011;5248;47.374;8.486;2023-04-15T07:42:35;3.03;;;1.90;;
10403;SDS011;5248;47.374;8.486;2023-04-15T07:45:04;1.60;;;1.50;;
10403;SDS011;5248;47.374;8.486;2023-04-15T07:47:31;2.00;;;1.80;;
10403;SDS011;5248;47.374;8.486;2023-04-15T07:49:57;3.03;;;1.73;;
10403;SDS011;5248;47.374;8.486;2023-04-15T07:52:24;4.63;;;2.30;;
10403;SDS011;5248;47.374;8.486;2023-04-15T07:54:51;2.87;;;1.70;;
10403;SDS011;5248;47.374;8.486;2023-04-15T07:57:18;3.27;;;1.70;;
10403;SDS011;5248;47.374;8.486;2023-04-15T07:59:47;2.57;;;1.60;;
10403;SDS011;5248;47.374;8.486;2023-04-15T08:02:15;3.90;;;2.20;;
10403;SDS011;5248;47.374;8.486;2023-04-15T08:04:42;2.23;;;1.70;;
10403;SDS011;5248;47.374;8.486;2023-04-15T08:07:08;2.20;;;1.57;;
10403;SDS011;5248;47.374;8.486;2023-04-15T08:09:35;1.97;;;1.83;;
10403;SDS011;5248;47.374;8.486;2023-04-15T08:12:01;2.60;;;2.20;;
10403;SDS011;5248;47.374;8.486;2023-04-15T08:14:28;3.43;;;2.33;;
10403;SDS011;5248;47.374;8.486;2023-04-15T08:16:57;2.93;;;2.00;;
10403;SDS011;5248;47.374;8.486;2023-04-15T08:19:25;2.00;;;1.73;;
10403;SDS011;5248;47.374;8.486;2023-04-15T08:21:51;2.90;;;1.70;;
10403;SDS011;5248;47.374;8.486;2023-04-15T08:24:18;3.93;;;2.30;;
10403;SDS011;5248;47.374;8.486;2023-04-15T08:26:44;3.47;;;2.30;;
10403;SDS011;5248;47.374;8.486;2023-04-15T08:29:11;6.33;;;2.47;;
10403;SDS011;5248;47.374;8.486;2023-04-15T08:31:38;2.43;;;1.80;;
10403;SDS011;5248;47.374;8.486;2023-04-15T08:34:05;3.27;;;1.40;;
10403;SDS011;5248;47.374;8.486;2023-04-15T08:36:32;2.10;;;1.10;;
10403;SDS011;5248;47.374;8.486;2023-04-15T08:38:59;4.13;;;1.23;;
10403;SDS011;5248;47.374;8.486;2023-04-15T08:41:27;1.70;;;1.17;;
10403;SDS011;5248;47.374;8.486;2023-04-15T08:44:00;1.50;;;1.10;;
10403;SDS011;5248;47.374;8.486;2023-04-15T08:46:29;7.50;;;2.00;;
10403;SDS011;5248;47.374;8.486;2023-04-15T08:48:58;2.50;;;2.27;;
10403;SDS011;5248;47.374;8.486;2023-04-15T08:51:25;5.20;;;2.60;;
10403;SDS011;5248;47.374;8.486;2023-04-15T08:53:53;1.97;;;1.87;;
10403;SDS011;5248;47.374;8.486;2023-04-15T08:56:21;2.20;;;2.00;;
10403;SDS011;5248;47.374;8.486;2023-04-15T08:58:50;3.50;;;2.50;;
10403;SDS011;5248;47.374;8.486;2023-04-15T09:01:16;3.50;;;2.27;;
10403;SDS011;5248;47.374;8.486;2023-04-15T09:03:43;2.70;;;2.10;;
10403;SDS011;5248;47.374;8.486;2023-04-15T09:06:10;3.90;;;2.40;;
10403;SDS011;5248;47.374;8.486;2023-04-15T09:08:37;3.17;;;2.33;;
10403;SDS011;5248;47.374;8.486;2023-04-15T09:11:04;4.37;;;2.20;;
10403;SDS011;5248;47.374;8.486;2023-04-15T09:13:31;2.77;;;1.93;;
10403;SDS011;5248;47.374;8.486;2023-04-15T09:15:57;2.77;;;2.10;;
10403;SDS011;5248;47.374;8.486;2023-04-15T09:18:27;2.30;;;2.10;;
10403;SDS011;5248;47.374;8.486;2023-04-15T09:20:54;2.10;;;2.00;;
10403;SDS011;5248;47.374;8.486;2023-04-15T09:23:21;3.03;;;2.00;;
10403;SDS011;5248;47.374;8.486;2023-04-15T09:25:48;2.67;;;2.00;;
10403;SDS011;5248;47.374;8.486;2023-04-15T09:28:22;2.80;;;1.90;;
10403;SDS011;5248;47.374;8.486;2023-04-15T09:30:50;2.33;;;1.70;;
10403;SDS011;5248;47.374;8.486;2023-04-15T09:33:17;4.40;;;2.27;;
10403;SDS011;5248;47.374;8.486;2023-04-15T09:35:47;3.37;;;1.90;;
10403;SDS011;5248;47.374;8.486;2023-04-15T09:38:21;2.80;;;1.80;;
10403;SDS011;5248;47.374;8.486;2023-04-15T09:40:48;2.37;;;1.73;;
10403;SDS011;5248;47.374;8.486;2023-04-15T09:43:16;2.90;;;1.83;;
10403;SDS011;5248;47.374;8.486;2023-04-15T09:45:46;4.07;;;2.20;;
10403;SDS011;5248;47.374;8.486;2023-04-15T09:48:14;2.77;;;2.00;;
10403;SDS011;5248;47.374;8.486;2023-04-15T09:50:42;2.93;;;2.17;;
10403;SDS011;5248;47.374;8.486;2023-04-15T09:53:09;2.43;;;1.70;;
10403;SDS011;5248;47.374;8.486;2023-04-15T09:55:36;2.27;;;2.00;;
10403;SDS011;5248;47.374;8.486;2023-04-15T09:58:07;2.53;;;1.83;;
10403;SDS011;5248;47.374;8.486;2023-04-15T10:00:35;2.83;;;2.07;;
10403;SDS011;5248;47.374;8.486;2023-04-15T10:03:03;2.77;;;1.97;;
10403;SDS011;5248;47.374;8.486;2023-04-15T10:05:31;3.57;;;2.00;;
10403;SDS011;5248;47.374;8.486;2023-04-15T10:07:57;2.43;;;2.00;;
10403;SDS011;5248;47.374;8.486;2023-04-15T10:10:24;5.20;;;2.43;;
10403;SDS011;5248;47.374;8.486;2023-04-15T10:12:51;2.50;;;2.30;;
10403;SDS011;5248;47.374;8.486;2023-04-15T10:15:19;2.80;;;1.70;;
10403;SDS011;5248;47.374;8.486;2023-04-15T10:17:47;3.80;;;2.07;;
10403;SDS011;5248;47.374;8.486;2023-04-15T10:20:16;4.27;;;1.70;;
10403;SDS011;5248;47.374;8.486;2023-04-15T10:22:45;4.57;;;2.80;;
10403;SDS011;5248;47.374;8.486;2023-04-15T10:25:12;2.87;;;1.40;;
10403;SDS011;5248;47.374;8.486;2023-04-15T10:27:40;3.77;;;3.47;;
10403;SDS011;5248;47.374;8.486;2023-04-15T10:30:07;2.47;;;1.47;;
10403;SDS011;5248;47.374;8.486;2023-04-15T10:32:34;3.40;;;1.47;;
10403;SDS011;5248;47.374;8.486;2023-04-15T10:35:02;2.07;;;1.40;;
10403;SDS011;5248;47.374;8.486;2023-04-15T10:37:34;3.57;;;1.60;;
10403;SDS011;5248;47.374;8.486;2023-04-15T10:42:49;2.30;;;1.30;;
10403;SDS011;5248;47.374;8.486;2023-04-15T10:45:15;1.87;;;1.50;;
10403;SDS011;5248;47.374;8.486;2023-04-15T10:47:44;2.23;;;1.27;;
10403;SDS011;5248;47.374;8.486;2023-04-15T10:50:11;1.83;;;1.47;;
10403;SDS011;5248;47.374;8.486;2023-04-15T10:52:39;2.53;;;1.23;;
10403;SDS011;5248;47.374;8.486;2023-04-15T10:55:11;2.30;;;1.10;;
10403;SDS011;5248;47.374;8.486;2023-04-15T10:57:39;1.83;;;1.17;;
10403;SDS011;5248;47.374;8.486;2023-04-15T11:00:11;1.27;;;1.13;;
10403;SDS011;5248;47.374;8.486;2023-04-15T11:02:42;2.07;;;1.20;;
10403;SDS011;5248;47.374;8.486;2023-04-15T11:05:11;3.10;;;1.50;;
10403;SDS011;5248;47.374;8.486;2023-04-15T11:07:39;3.73;;;1.40;;
10403;SDS011;5248;47.374;8.486;2023-04-15T11:13:16;3.30;;;1.93;;
10403;SDS011;5248;47.374;8.486;2023-04-15T11:15:46;2.20;;;1.37;;
10403;SDS011;5248;47.374;8.486;2023-04-15T11:18:13;5.07;;;1.73;;
10403;SDS011;5248;47.374;8.486;2023-04-15T11:20:42;2.83;;;1.60;;
10403;SDS011;5248;47.374;8.486;2023-04-15T11:23:10;2.77;;;1.90;;
10403;SDS011;5248;47.374;8.486;2023-04-15T11:25:36;2.27;;;1.40;;
10403;SDS011;5248;47.374;8.486;2023-04-15T11:28:03;4.20;;;1.70;;
10403;SDS011;5248;47.374;8.486;2023-04-15T11:30:30;2.33;;;1.50;;
10403;SDS011;5248;47.374;8.486;2023-04-15T11:32:58;3.13;;;1.57;;
10403;SDS011;5248;47.374;8.486;2023-04-15T11:35:26;3.10;;;1.40;;
10403;SDS011;5248;47.374;8.486;2023-04-15T11:37:54;1.70;;;1.60;;
10403;SDS011;5248;47.374;8.486;2023-04-15T11:40:21;3.23;;;2.33;;
10403;SDS011;5248;47.374;8.486;2023-04-15T11:43:02;2.50;;;1.53;;
10403;SDS011;5248;47.374;8.486;2023-04-15T11:45:29;1.80;;;1.70;;
10403;SDS011;5248;47.374;8.486;2023-04-15T11:48:03;1.13;;;1.03;;
10403;SDS011;5248;47.374;8.486;2023-04-15T11:50:30;3.30;;;1.47;;
10403;SDS011;5248;47.374;8.486;2023-04-15T11:53:00;2.70;;;1.50;;
10403;SDS011;5248;47.374;8.486;2023-04-15T11:55:27;2.80;;;1.40;;
10403;SDS011;5248;47.374;8.486;2023-04-15T11:58:09;4.13;;;1.90;;
10403;SDS011;5248;47.374;8.486;2023-04-15T12:00:37;3.73;;;1.53;;
10403;SDS011;5248;47.374;8.486;2023-04-15T12:03:11;2.33;;;1.70;;
10403;SDS011;5248;47.374;8.486;2023-04-15T12:11:16;3.00;;;1.30;;
10403;SDS011;5248;47.374;8.486;2023-04-15T12:13:43;1.70;;;1.43;;
10403;SDS011;5248;47.374;8.486;2023-04-15T12:16:09;2.07;;;1.47;;
10403;SDS011;5248;47.374;8.486;2023-04-15T12:18:36;2.03;;;1.57;;
10403;SDS011;5248;47.374;8.486;2023-04-15T12:21:03;1.47;;;1.37;;
10403;SDS011;5248;47.374;8.486;2023-04-15T12:23:35;2.80;;;1.53;;
10403;SDS011;5248;47.374;8.486;2023-04-15T12:26:05;2.10;;;1.83;;
10403;SDS011;5248;47.374;8.486;2023-04-15T12:28:33;5.57;;;2.80;;
10403;SDS011;5248;47.374;8.486;2023-04-15T12:30:59;3.00;;;1.70;;
10403;SDS011;5248;47.374;8.486;2023-04-15T12:33:31;3.40;;;3.10;;
10403;SDS011;5248;47.374;8.486;2023-04-15T12:35:58;1.97;;;1.77;;
10403;SDS011;5248;47.374;8.486;2023-04-15T12:38:24;1.83;;;1.73;;
10403;SDS011;5248;47.374;8.486;2023-04-15T12:40:51;2.03;;;1.50;;
10403;SDS011;5248;47.374;8.486;2023-04-15T12:43:18;1.57;;;1.40;;
10403;SDS011;5248;47.374;8.486;2023-04-15T12:45:45;1.43;;;1.33;;
10403;SDS011;5248;47.374;8.486;2023-04-15T12:48:12;1.57;;;1.47;;
10403;SDS011;5248;47.374;8.486;2023-04-15T12:50:38;2.60;;;1.43;;
10403;SDS011;5248;47.374;8.486;2023-04-15T12:53:05;1.40;;;1.23;;
10403;SDS011;5248;47.374;8.486;2023-04-15T12:55:31;2.83;;;2.33;;
10403;SDS011;5248;47.374;8.486;2023-04-15T12:57:58;1.53;;;1.43;;
10403;SDS011;5248;47.374;8.486;2023-04-15T13:00:25;8.77;;;1.90;;
10403;SDS011;5248;47.374;8.486;2023-04-15T13:02:52;1.83;;;1.30;;
10403;SDS011;5248;47.374;8.486;2023-04-15T13:05:19;1.10;;;1.10;;
10403;SDS011;5248;47.374;8.486;2023-04-15T13:07:45;1.50;;;1.00;;
10403;SDS011;5248;47.374;8.486;2023-04-15T13:10:12;1.40;;;1.33;;
10403;SDS011;5248;47.374;8.486;2023-04-15T13:12:38;1.53;;;1.40;;
10403;SDS011;5248;47.374;8.486;2023-04-15T13:15:06;1.37;;;1.37;;
10403;SDS011;5248;47.374;8.486;2023-04-15T13:17:37;1.40;;;1.30;;
10403;SDS011;5248;47.374;8.486;2023-04-15T13:20:04;1.87;;;1.30;;
10403;SDS011;5248;47.374;8.486;2023-04-15T13:22:31;2.50;;;1.70;;
10403;SDS011;5248;47.374;8.486;2023-04-15T13:25:00;4.23;;;3.83;;
10403;SDS011;5248;47.374;8.486;2023-04-15T13:27:26;1.73;;;1.63;;
10403;SDS011;5248;47.374;8.486;2023-04-15T13:29:53;2.83;;;1.50;;
10403;SDS011;5248;47.374;8.486;2023-04-15T13:32:19;2.83;;;1.37;;
10403;SDS011;5248;47.374;8.486;2023-04-15T13:34:47;1.87;;;1.43;;
10403;SDS011;5248;47.374;8.486;2023-04-15T13:37:14;1.93;;;1.40;;
10403;SDS011;5248;47.374;8.486;2023-04-15T13:39:40;1.63;;;1.40;;
10403;SDS011;5248;47.374;8.486;2023-04-15T13:42:07;1.10;;;1.00;;
10403;SDS011;5248;47.374;8.486;2023-04-15T13:44:33;2.10;;;1.20;;
10403;SDS011;5248;47.374;8.486;2023-04-15T13:46:59;1.50;;;1.10;;
10403;SDS011;5248;47.374;8.486;2023-04-15T13:49:26;2.30;;;1.37;;
10403;SDS011;5248;47.374;8.486;2023-04-15T13:51:54;1.50;;;1.40;;
10403;SDS011;5248;47.374;8.486;2023-04-15T13:54:20;1.23;;;1.17;;
10403;SDS011;5248;47.374;8.486;2023-04-15T13:56:46;1.17;;;1.03;;
10403;SDS011;5248;47.374;8.486;2023-04-15T13:59:13;2.90;;;1.40;;
10403;SDS011;5248;47.374;8.486;2023-04-15T14:01:40;0.70;;;0.70;;
10403;SDS011;5248;47.374;8.486;2023-04-15T14:04:07;1.40;;;1.17;;
10403;SDS011;5248;47.374;8.486;2023-04-15T14:06:34;1.40;;;1.13;;
10403;SDS011;5248;47.374;8.486;2023-04-15T14:09:02;2.97;;;1.37;;
10403;SDS011;5248;47.374;8.486;2023-04-15T14:11:28;3.43;;;1.17;;
10403;SDS011;5248;47.374;8.486;2023-04-15T14:13:55;1.93;;;1.10;;
10403;SDS011;5248;47.374;8.486;2023-04-15T14:16:21;1.60;;;1.23;;
10403;SDS011;5248;47.374;8.486;2023-04-15T14:18:47;1.43;;;0.97;;
10403;SDS011;5248;47.374;8.486;2023-04-15T14:21:14;1.30;;;1.20;;
10403;SDS011;5248;47.374;8.486;2023-04-15T14:23:41;2.47;;;1.63;;
10403;SDS011;5248;47.374;8.486;2023-04-15T14:26:09;1.90;;;1.60;;
10403;SDS011;5248;47.374;8.486;2023-04-15T14:28:35;4.17;;;3.40;;
10403;SDS011;5248;47.374;8.486;2023-04-15T14:31:03;2.37;;;2.20;;
10403;SDS011;5248;47.374;8.486;2023-04-15T14:33:29;9.73;;;2.60;;
10403;SDS011;5248;47.374;8.486;2023-04-15T14:35:56;3.77;;;2.47;;
10403;SDS011;5248;47.374;8.486;2023-04-15T14:38:22;2.40;;;1.47;;
10403;SDS011;5248;47.374;8.486;2023-04-15T14:40:48;2.50;;;1.20;;
10403;SDS011;5248;47.374;8.486;2023-04-15T14:43:16;2.93;;;1.23;;
10403;SDS011;5248;47.374;8.486;2023-04-15T14:45:43;2.37;;;1.30;;
10403;SDS011;5248;47.374;8.486;2023-04-15T14:48:09;0.80;;;0.80;;
10403;SDS011;5248;47.374;8.486;2023-04-15T14:50:37;1.10;;;0.67;;
10403;SDS011;5248;47.374;8.486;2023-04-15T14:53:04;2.43;;;1.00;;
10403;SDS011;5248;47.374;8.486;2023-04-15T14:55:32;1.80;;;0.83;;
10403;SDS011;5248;47.374;8.486;2023-04-15T14:57:58;1.13;;;0.70;;
10403;SDS011;5248;47.374;8.486;2023-04-15T15:00:27;1.00;;;0.90;;
10403;SDS011;5248;47.374;8.486;2023-04-15T15:02:54;0.70;;;0.70;;
10403;SDS011;5248;47.374;8.486;2023-04-15T15:05:20;1.57;;;1.10;;
10403;SDS011;5248;47.374;8.486;2023-04-15T15:07:47;2.50;;;1.33;;
10403;SDS011;5248;47.374;8.486;2023-04-15T15:10:13;1.50;;;1.20;;
10403;SDS011;5248;47.374;8.486;2023-04-15T15:12:40;0.70;;;0.70;;